Time;durP1;ratioP1;P1;durP2;ratioP2;P2;SDS_P1;SDS_P2;PMS_P1;PMS_P2;Temp;Humidity;BMP_temperature;BMP_pressure;BME280_temperature;BME280_humidity;BME280_pressure;Samples;Min_cycle;Max_cycle;Signal;HPM_P1;HPM_P2
2021/08/05 00:00:46;;;;;;;3.37;2.97;;;;;;;;;;5054450;28;20462;-70
2021/08/05 00:03:12;;;;;;;8.33;3.17;;;;;;;;;;5054541;28;20426;-70
2021/08/05 00:05:38;;;;;;;3.90;3.20;;;;;;;;;;5054427;28;20423;-69
2021/08/05 00:08:05;;;;;;;3.83;3.50;;;;;;;;;;5054037;28;20415;-70
2021/08/05 00:10:31;;;;;;;4.10;2.63;;;;;;;;;;5054592;28;20443;-69
2021/08/05 00:12:57;;;;;;;5.03;3.77;;;;;;;;;;5052622;28;20485;-70
2021/08/05 00:15:23;;;;;;;4.53;3.70;;;;;;;;;;5054108;28;20809;-70
2021/08/05 00:17:49;;;;;;;3.60;3.30;;;;;;;;;;5054345;28;20510;-70
2021/08/05 00:23:19;;;;;;;6.23;3.40;;;;;;;;;;5053340;28;20478;-70
2021/08/05 00:25:45;;;;;;;6.17;3.37;;;;;;;;;;5054006;28;20415;-69
2021/08/05 00:28:11;;;;;;;7.40;3.77;;;;;;;;;;5053040;28;20536;-69
2021/08/05 00:30:37;;;;;;;4.87;3.30;;;;;;;;;;5054282;28;20481;-70
2021/08/05 00:33:03;;;;;;;4.27;3.10;;;;;;;;;;5053893;28;20439;-70
2021/08/05 00:38:33;;;;;;;3.90;3.60;;;;;;;;;;5053508;28;20912;-70
2021/08/05 00:40:59;;;;;;;6.37;2.90;;;;;;;;;;5053332;28;20463;-70
2021/08/05 00:43:25;;;;;;;9.43;4.73;;;;;;;;;;5051889;28;20427;-69
2021/08/05 00:45:51;;;;;;;3.80;3.47;;;;;;;;;;5053392;28;20423;-69
2021/08/05 00:48:17;;;;;;;4.10;3.80;;;;;;;;;;5053387;28;20407;-68
2021/08/05 00:53:46;;;;;;;3.33;3.03;;;;;;;;;;5053414;28;20410;-70
2021/08/05 00:56:13;;;;;;;4.03;3.63;;;;;;;;;;5053374;28;20963;-70
2021/08/05 00:58:39;;;;;;;4.27;3.33;;;;;;;;;;5053222;28;20417;-70
2021/08/05 01:01:10;;;;;;;3.47;3.27;;;;;;;;;;5052815;28;20466;-70
2021/08/05 01:03:38;;;;;;;4.30;3.70;;;;;;;;;;5053427;28;20410;-70
2021/08/05 01:09:17;;;;;;;3.60;3.30;;;;;;;;;;5052940;28;20461;-70
2021/08/05 01:11:49;;;;;;;5.07;3.70;;;;;;;;;;5053534;28;20496;-70
2021/08/05 01:14:16;;;;;;;3.93;3.53;;;;;;;;;;5052948;28;20415;-70
2021/08/05 01:16:43;;;;;;;3.93;3.30;;;;;;;;;;5052739;28;20806;-69
2021/08/05 01:19:13;;;;;;;4.40;3.93;;;;;;;;;;5052981;28;20407;-70
2021/08/05 01:21:45;;;;;;;5.67;3.77;;;;;;;;;;5051802;28;20532;-70
2021/08/05 01:24:13;;;;;;;3.77;3.47;;;;;;;;;;5052587;28;20404;-70
2021/08/05 01:26:42;;;;;;;5.57;3.53;;;;;;;;;;5052871;28;20403;-69
2021/08/05 01:29:08;;;;;;;6.87;3.90;;;;;;;;;;5052749;28;20419;-69
2021/08/05 01:31:34;;;;;;;5.90;3.30;;;;;;;;;;5052912;28;20441;-70
2021/08/05 01:34:00;;;;;;;7.30;3.57;;;;;;;;;;5052234;28;20423;-70
2021/08/05 01:36:27;;;;;;;4.60;3.70;;;;;;;;;;5052493;28;20999;-69
2021/08/05 01:38:53;;;;;;;6.37;4.37;;;;;;;;;;5052455;28;20415;-70
2021/08/05 01:41:19;;;;;;;3.80;3.23;;;;;;;;;;5052641;28;20466;-70
2021/08/05 01:43:46;;;;;;;3.80;3.50;;;;;;;;;;5052572;28;20727;-69
2021/08/05 01:46:12;;;;;;;3.37;3.07;;;;;;;;;;5052520;28;20411;-70
2021/08/05 01:48:38;;;;;;;3.70;3.40;;;;;;;;;;5052795;28;20417;-70
2021/08/05 01:54:08;;;;;;;8.37;5.70;;;;;;;;;;5052224;28;20414;-70
2021/08/05 01:56:34;;;;;;;3.60;3.30;;;;;;;;;;5052011;28;20437;-70
2021/08/05 01:59:00;;;;;;;3.60;3.30;;;;;;;;;;5052271;28;20421;-71
2021/08/05 02:01:26;;;;;;;6.70;3.07;;;;;;;;;;5052304;28;20530;-70
2021/08/05 02:10:11;;;;;;;4.40;3.93;;;;;;;;;;5052289;28;20924;-69
2021/08/05 02:12:40;;;;;;;4.10;3.70;;;;;;;;;;5052408;28;20909;-70
2021/08/05 02:15:07;;;;;;;5.60;3.83;;;;;;;;;;5052583;28;20426;-70
2021/08/05 02:17:34;;;;;;;5.10;4.03;;;;;;;;;;5052442;28;20422;-70
2021/08/05 02:20:00;;;;;;;4.07;3.67;;;;;;;;;;5052348;28;20506;-70
2021/08/05 02:22:27;;;;;;;4.67;4.27;;;;;;;;;;5052147;28;20517;-70
2021/08/05 02:24:53;;;;;;;6.50;4.37;;;;;;;;;;5052573;28;20923;-70
2021/08/05 02:27:19;;;;;;;4.20;3.70;;;;;;;;;;5052168;28;20462;-70
2021/08/05 02:29:45;;;;;;;4.13;3.70;;;;;;;;;;5052212;28;20407;-70
2021/08/05 02:32:11;;;;;;;4.53;3.20;;;;;;;;;;5052123;28;20480;-70
2021/08/05 02:34:37;;;;;;;5.40;4.17;;;;;;;;;;5052401;28;20547;-70
2021/08/05 02:37:04;;;;;;;3.80;3.33;;;;;;;;;;5052143;28;20419;-70
2021/08/05 02:39:31;;;;;;;4.47;3.90;;;;;;;;;;5051878;28;20407;-69
2021/08/05 02:41:57;;;;;;;4.57;3.80;;;;;;;;;;5051862;28;20561;-70
2021/08/05 02:44:23;;;;;;;5.10;3.50;;;;;;;;;;5051887;28;20411;-70
2021/08/05 02:46:50;;;;;;;7.10;3.73;;;;;;;;;;5054540;28;20491;-70
2021/08/05 02:49:16;;;;;;;4.03;3.63;;;;;;;;;;5056033;28;20411;-68
2021/08/05 02:54:46;;;;;;;5.70;4.00;;;;;;;;;;5055625;28;20480;-69
2021/08/05 02:57:13;;;;;;;4.83;4.43;;;;;;;;;;5055949;28;20452;-69
2021/08/05 02:59:39;;;;;;;4.43;3.93;;;;;;;;;;5055552;28;20415;-70
2021/08/05 03:02:05;;;;;;;7.93;5.03;;;;;;;;;;5055345;28;20949;-70
2021/08/05 03:04:34;;;;;;;5.07;4.57;;;;;;;;;;5055609;28;20464;-69
2021/08/05 03:07:00;;;;;;;7.67;4.33;;;;;;;;;;5055343;28;20425;-70
2021/08/05 03:09:27;;;;;;;6.77;5.10;;;;;;;;;;5055061;28;20879;-70
2021/08/05 03:11:53;;;;;;;5.93;4.47;;;;;;;;;;5055241;28;20830;-69
2021/08/05 03:14:19;;;;;;;8.10;4.43;;;;;;;;;;5055346;28;20415;-70
2021/08/05 03:16:45;;;;;;;5.10;4.60;;;;;;;;;;5055251;28;20477;-69
2021/08/05 03:19:11;;;;;;;4.80;4.40;;;;;;;;;;5055142;28;20411;-69
2021/08/05 03:24:41;;;;;;;6.17;5.17;;;;;;;;;;5055024;28;20413;-69
2021/08/05 03:27:07;;;;;;;4.97;4.47;;;;;;;;;;5054993;28;20410;-69
2021/08/05 03:29:33;;;;;;;6.97;4.70;;;;;;;;;;5055190;28;20905;-69
2021/08/05 03:31:59;;;;;;;6.30;4.60;;;;;;;;;;5055060;28;20414;-69
2021/08/05 03:34:25;;;;;;;6.10;5.50;;;;;;;;;;5055083;28;20473;-69
2021/08/05 03:39:55;;;;;;;8.20;5.00;;;;;;;;;;5054763;28;20458;-69
2021/08/05 03:42:21;;;;;;;6.13;4.93;;;;;;;;;;5054644;28;20499;-69
2021/08/05 03:44:47;;;;;;;5.27;4.87;;;;;;;;;;5055062;28;20407;-69
2021/08/05 03:47:13;;;;;;;5.30;4.60;;;;;;;;;;5054561;28;20854;-69
2021/08/05 03:49:39;;;;;;;5.70;4.57;;;;;;;;;;5054512;28;20460;-70
2021/08/05 03:55:13;;;;;;;5.23;4.70;;;;;;;;;;5054663;28;20740;-70
2021/08/05 03:57:39;;;;;;;4.80;4.30;;;;;;;;;;5054309;28;20399;-69
2021/08/05 04:00:06;;;;;;;5.17;4.70;;;;;;;;;;5054573;28;20486;-69
2021/08/05 04:02:32;;;;;;;6.20;4.47;;;;;;;;;;5054530;28;20514;-69
2021/08/05 04:04:58;;;;;;;6.63;4.83;;;;;;;;;;5054539;28;20450;-69
2021/08/05 04:07:24;;;;;;;6.87;4.97;;;;;;;;;;5054713;28;20415;-69
2021/08/05 04:09:50;;;;;;;6.00;5.30;;;;;;;;;;5054525;28;20435;-69
2021/08/05 04:12:15;;;;;;;6.07;5.47;;;;;;;;;;5054665;28;20423;-69
2021/08/05 04:14:41;;;;;;;9.03;5.00;;;;;;;;;;5054366;28;20440;-69
2021/08/05 04:17:07;;;;;;;6.43;4.93;;;;;;;;;;5054358;28;20425;-69
2021/08/05 04:19:33;;;;;;;5.07;4.60;;;;;;;;;;5054297;28;20766;-69
2021/08/05 04:25:08;;;;;;;5.10;4.60;;;;;;;;;;5054138;28;20959;-69
2021/08/05 04:27:34;;;;;;;5.87;5.37;;;;;;;;;;5054121;28;20438;-68
2021/08/05 04:30:00;;;;;;;6.23;5.50;;;;;;;;;;5054073;28;20418;-68
2021/08/05 04:32:26;;;;;;;5.70;5.10;;;;;;;;;;5054072;28;20411;-69
2021/08/05 04:34:52;;;;;;;7.67;5.50;;;;;;;;;;5052566;28;20972;-69
2021/08/05 04:40:22;;;;;;;8.70;5.63;;;;;;;;;;5053794;28;20573;-69
2021/08/05 04:42:48;;;;;;;6.60;5.10;;;;;;;;;;5053783;28;20929;-70
2021/08/05 04:45:14;;;;;;;6.70;5.33;;;;;;;;;;5053875;28;20423;-69
2021/08/05 04:47:57;;;;;;;6.20;5.50;;;;;;;;;;5053301;28;20414;-69
2021/08/05 04:50:24;;;;;;;5.30;4.80;;;;;;;;;;5053587;28;20419;-69
2021/08/05 04:52:50;;;;;;;4.90;4.30;;;;;;;;;;5052256;28;20934;-69
2021/08/05 04:55:17;;;;;;;5.07;4.57;;;;;;;;;;5053787;28;20425;-69
2021/08/05 04:58:02;;;;;;;5.60;4.60;;;;;;;;;;5053500;28;20500;-69
2021/08/05 05:00:29;;;;;;;6.50;5.40;;;;;;;;;;5053588;28;20462;-69
2021/08/05 05:02:55;;;;;;;5.27;4.77;;;;;;;;;;5053476;28;20739;-69
2021/08/05 05:05:22;;;;;;;5.40;4.10;;;;;;;;;;5053527;28;20430;-69
2021/08/05 05:07:48;;;;;;;4.40;4.00;;;;;;;;;;5052759;28;20510;-69
2021/08/05 05:10:14;;;;;;;5.10;4.00;;;;;;;;;;5053060;28;20399;-70
2021/08/05 05:12:41;;;;;;;5.97;4.03;;;;;;;;;;5052325;28;20415;-69
2021/08/05 05:15:07;;;;;;;4.97;4.20;;;;;;;;;;5053271;28;20407;-69
2021/08/05 05:17:33;;;;;;;5.47;3.73;;;;;;;;;;5053473;28;20490;-69
2021/08/05 05:19:59;;;;;;;6.83;3.87;;;;;;;;;;5053147;28;20886;-69
2021/08/05 05:25:29;;;;;;;5.90;4.27;;;;;;;;;;5052912;28;20418;-69
2021/08/05 05:27:55;;;;;;;5.50;3.97;;;;;;;;;;5053002;28;20414;-69
2021/08/05 05:30:21;;;;;;;9.10;5.23;;;;;;;;;;5053294;28;20869;-69
2021/08/05 05:32:47;;;;;;;10.23;4.10;;;;;;;;;;5052867;28;20396;-69
2021/08/05 05:35:14;;;;;;;5.70;4.73;;;;;;;;;;5052773;28;20458;-69
2021/08/05 05:40:44;;;;;;;6.70;4.10;;;;;;;;;;5052744;28;20525;-69
2021/08/05 05:43:11;;;;;;;4.30;3.90;;;;;;;;;;5052841;28;20458;-69
2021/08/05 05:45:37;;;;;;;8.27;3.77;;;;;;;;;;5052777;28;20812;-69
2021/08/05 05:48:03;;;;;;;9.33;5.03;;;;;;;;;;5052715;28;20430;-68
2021/08/05 05:50:30;;;;;;;5.60;3.77;;;;;;;;;;5052408;28;20947;-69
2021/08/05 05:55:59;;;;;;;7.33;4.00;;;;;;;;;;5052276;28;20869;-69
2021/08/05 05:58:25;;;;;;;3.93;3.60;;;;;;;;;;5052566;28;20431;-69
2021/08/05 06:00:51;;;;;;;4.70;4.30;;;;;;;;;;5052232;28;20490;-69
2021/08/05 06:03:18;;;;;;;8.00;4.37;;;;;;;;;;5052248;28;20578;-70
2021/08/05 06:11:32;;;;;;;9.83;4.00;;;;;;;;;;5052160;28;20737;-69
2021/08/05 06:13:58;;;;;;;4.20;3.80;;;;;;;;;;5052159;28;20965;-70
2021/08/05 06:16:24;;;;;;;4.13;3.73;;;;;;;;;;5052091;28;20443;-70
2021/08/05 06:18:50;;;;;;;5.27;3.07;;;;;;;;;;5051927;28;20873;-69
2021/08/05 06:21:16;;;;;;;3.97;3.23;;;;;;;;;;5055630;28;20523;-68
2021/08/05 06:23:43;;;;;;;4.63;3.60;;;;;;;;;;5055561;28;20506;-69
2021/08/05 06:26:09;;;;;;;4.50;2.77;;;;;;;;;;5055960;28;20878;-70
2021/08/05 06:28:35;;;;;;;3.33;2.80;;;;;;;;;;5055834;28;20446;-69
2021/08/05 06:31:01;;;;;;;3.80;3.30;;;;;;;;;;5056120;28;20423;-70
2021/08/05 06:33:27;;;;;;;5.77;3.20;;;;;;;;;;5055892;28;20478;-70
2021/08/05 06:35:53;;;;;;;4.40;2.83;;;;;;;;;;5055379;28;20454;-69
2021/08/05 06:41:23;;;;;;;2.87;2.47;;;;;;;;;;5055618;28;20469;-70
2021/08/05 06:43:49;;;;;;;6.87;3.23;;;;;;;;;;5053705;28;20418;-69
2021/08/05 06:46:15;;;;;;;3.13;2.87;;;;;;;;;;5054418;28;20485;-69
2021/08/05 06:48:41;;;;;;;3.30;3.00;;;;;;;;;;5054700;28;20878;-69
2021/08/05 06:51:10;;;;;;;3.13;2.73;;;;;;;;;;5054574;28;20423;-70
2021/08/05 06:53:36;;;;;;;4.13;2.63;;;;;;;;;;5054664;28;20411;-68
2021/08/05 06:56:02;;;;;;;7.60;3.17;;;;;;;;;;5054153;28;20765;-69
2021/08/05 06:58:29;;;;;;;7.27;2.80;;;;;;;;;;5054106;28;20414;-70
2021/08/05 07:00:55;;;;;;;7.13;2.83;;;;;;;;;;5053635;28;20549;-69
2021/08/05 07:03:21;;;;;;;4.10;2.53;;;;;;;;;;5054241;28;20546;-69
2021/08/05 07:05:47;;;;;;;2.37;2.13;;;;;;;;;;5054179;28;20451;-69
2021/08/05 07:11:19;;;;;;;4.80;2.70;;;;;;;;;;5054124;28;20844;-71
2021/08/05 07:13:45;;;;;;;3.67;3.10;;;;;;;;;;5054161;28;20407;-70
2021/08/05 07:16:11;;;;;;;3.00;2.73;;;;;;;;;;5054488;28;20438;-70
2021/08/05 07:18:37;;;;;;;2.60;2.40;;;;;;;;;;5054072;28;20419;-70
2021/08/05 07:21:03;;;;;;;7.73;2.80;;;;;;;;;;5054091;28;20470;-70
2021/08/05 07:26:32;;;;;;;3.53;2.70;;;;;;;;;;5054157;28;20414;-70
2021/08/05 07:28:58;;;;;;;3.70;3.07;;;;;;;;;;5054115;28;20418;-68
2021/08/05 07:31:25;;;;;;;2.50;2.30;;;;;;;;;;5053649;28;20431;-69
2021/08/05 07:33:52;;;;;;;4.00;2.27;;;;;;;;;;5054454;28;20804;-68
2021/08/05 07:36:18;;;;;;;4.80;2.30;;;;;;;;;;5053984;28;20833;-68
2021/08/05 07:41:48;;;;;;;2.40;2.20;;;;;;;;;;5054018;28;20542;-70
2021/08/05 07:44:14;;;;;;;3.13;2.20;;;;;;;;;;5054115;28;20423;-69
2021/08/05 07:46:40;;;;;;;3.30;3.00;;;;;;;;;;5054080;28;20923;-69
2021/08/05 07:49:06;;;;;;;3.70;2.93;;;;;;;;;;5053630;28;20411;-70
2021/08/05 07:51:32;;;;;;;3.10;2.80;;;;;;;;;;5052609;28;20437;-70
2021/08/05 07:53:58;;;;;;;2.67;2.43;;;;;;;;;;5053894;28;20458;-69
2021/08/05 07:56:24;;;;;;;3.77;2.30;;;;;;;;;;5053818;28;20458;-69
2021/08/05 07:58:51;;;;;;;3.20;2.70;;;;;;;;;;5053788;28;20419;-69
2021/08/05 08:01:17;;;;;;;2.60;2.40;;;;;;;;;;5053724;28;20466;-69
2021/08/05 08:03:43;;;;;;;2.60;2.40;;;;;;;;;;5053819;28;20503;-68
2021/08/05 08:06:09;;;;;;;3.27;2.70;;;;;;;;;;5053955;28;20477;-70
2021/08/05 08:11:39;;;;;;;2.13;2.00;;;;;;;;;;5053400;28;20426;-69
2021/08/05 08:14:05;;;;;;;3.03;2.70;;;;;;;;;;5053387;28;20423;-69
2021/08/05 08:16:31;;;;;;;2.43;2.23;;;;;;;;;;5053492;28;20416;-69
2021/08/05 08:18:57;;;;;;;2.50;2.30;;;;;;;;;;5053220;28;20408;-70
2021/08/05 08:21:23;;;;;;;3.00;2.70;;;;;;;;;;5053133;28;20842;-69
2021/08/05 08:26:52;;;;;;;2.40;2.20;;;;;;;;;;5053016;28;20460;-70
2021/08/05 08:29:18;;;;;;;2.80;2.30;;;;;;;;;;5051829;28;20934;-69
2021/08/05 08:31:48;;;;;;;4.40;1.93;;;;;;;;;;5053028;28;20462;-70
2021/08/05 08:34:14;;;;;;;2.87;2.67;;;;;;;;;;5052790;28;20496;-70
2021/08/05 08:36:42;;;;;;;4.30;2.10;;;;;;;;;;5052950;28;20431;-68
2021/08/05 08:42:13;;;;;;;4.97;2.63;;;;;;;;;;5052588;28;20473;-69
2021/08/05 08:44:39;;;;;;;4.30;2.27;;;;;;;;;;5050785;28;20488;-69
2021/08/05 08:47:07;;;;;;;2.53;2.33;;;;;;;;;;5052863;28;20435;-69
2021/08/05 08:49:33;;;;;;;3.80;2.50;;;;;;;;;;5052738;28;20419;-69
2021/08/05 08:51:59;;;;;;;2.13;2.00;;;;;;;;;;5052481;28;20423;-69
2021/08/05 08:54:25;;;;;;;3.47;2.70;;;;;;;;;;5052335;28;20889;-69
2021/08/05 08:56:53;;;;;;;2.87;1.93;;;;;;;;;;5052624;28;20424;-69
2021/08/05 08:59:20;;;;;;;3.00;2.00;;;;;;;;;;5052541;28;20418;-69
2021/08/05 09:01:46;;;;;;;3.10;2.00;;;;;;;;;;5052334;28;20474;-69
2021/08/05 09:04:13;;;;;;;1.57;1.47;;;;;;;;;;5052436;28;20430;-69
2021/08/05 09:06:40;;;;;;;1.80;1.67;;;;;;;;;;5052397;28;20432;-69
2021/08/05 09:12:15;;;;;;;1.70;1.53;;;;;;;;;;5052390;28;20543;-70
2021/08/05 09:14:42;;;;;;;2.07;1.70;;;;;;;;;;5052327;28;20415;-69
2021/08/05 09:17:17;;;;;;;2.60;1.63;;;;;;;;;;5052225;28;20411;-69
2021/08/05 09:19:43;;;;;;;2.23;2.03;;;;;;;;;;5052313;28;20410;-69
2021/08/05 09:28:17;;;;;;;2.40;1.40;;;;;;;;;;5049253;28;20882;-70
2021/08/05 09:30:44;;;;;;;1.43;1.30;;;;;;;;;;5051702;28;20411;-69
2021/08/05 09:33:11;;;;;;;1.20;1.10;;;;;;;;;;5051699;28;20427;-69
2021/08/05 09:35:38;;;;;;;3.27;1.43;;;;;;;;;;5051569;28;20513;-68
2021/08/05 09:38:20;;;;;;;1.50;1.40;;;;;;;;;;5051518;28;20415;-69
2021/08/05 09:40:46;;;;;;;2.73;1.37;;;;;;;;;;5051520;28;20459;-69
2021/08/05 09:43:13;;;;;;;1.60;1.50;;;;;;;;;;5051660;28;20427;-69
2021/08/05 09:45:40;;;;;;;1.73;1.63;;;;;;;;;;5051955;28;20740;-68
2021/08/05 09:48:06;;;;;;;1.27;1.17;;;;;;;;;;5051723;28;20513;-68
2021/08/05 09:50:32;;;;;;;1.63;1.37;;;;;;;;;;5051599;28;20426;-69
2021/08/05 09:53:08;;;;;;;1.83;1.73;;;;;;;;;;5051110;28;20416;-69
2021/08/05 09:55:35;;;;;;;1.70;1.40;;;;;;;;;;5051032;28;20442;-69
2021/08/05 09:58:02;;;;;;;2.20;2.00;;;;;;;;;;5051773;28;20434;-70
2021/08/05 10:00:40;;;;;;;2.10;1.80;;;;;;;;;;5051428;28;20787;-69
2021/08/05 10:03:06;;;;;;;1.70;1.60;;;;;;;;;;5050522;28;20785;-70
2021/08/05 10:05:32;;;;;;;2.50;2.33;;;;;;;;;;5051549;28;20423;-70
2021/08/05 10:07:59;;;;;;;3.13;1.70;;;;;;;;;;5051449;28;20423;-70
2021/08/05 10:10:26;;;;;;;1.73;1.63;;;;;;;;;;5051494;28;20407;-69
2021/08/05 10:12:53;;;;;;;1.87;1.70;;;;;;;;;;5051526;28;20437;-69
2021/08/05 10:15:20;;;;;;;2.80;1.80;;;;;;;;;;5051714;28;20955;-69
2021/08/05 10:17:50;;;;;;;1.70;1.60;;;;;;;;;;5050988;28;20469;-69
2021/08/05 10:20:16;;;;;;;2.03;1.53;;;;;;;;;;5051307;28;20890;-71
2021/08/05 10:22:42;;;;;;;1.87;1.23;;;;;;;;;;5051202;28;20419;-70
2021/08/05 10:25:13;;;;;;;1.70;1.57;;;;;;;;;;5051704;28;20510;-69
2021/08/05 10:27:39;;;;;;;1.50;1.40;;;;;;;;;;5051252;28;20457;-68
2021/08/05 10:30:06;;;;;;;1.20;1.10;;;;;;;;;;5051408;28;20454;-69
2021/08/05 10:32:32;;;;;;;1.20;1.10;;;;;;;;;;5051266;28;20418;-69
2021/08/05 10:34:59;;;;;;;1.63;1.53;;;;;;;;;;5051067;28;20967;-68
2021/08/05 10:37:25;;;;;;;1.17;1.07;;;;;;;;;;5051155;28;20411;-69
2021/08/05 10:42:56;;;;;;;1.90;1.80;;;;;;;;;;5050476;28;20492;-70
2021/08/05 10:45:22;;;;;;;1.53;1.43;;;;;;;;;;5050967;28;20443;-69
2021/08/05 10:47:49;;;;;;;1.80;1.70;;;;;;;;;;5049940;28;20427;-69
2021/08/05 10:50:19;;;;;;;1.40;1.30;;;;;;;;;;5051152;28;20399;-69
2021/08/05 10:52:50;;;;;;;1.20;1.10;;;;;;;;;;5051003;28;20474;-70
2021/08/05 10:58:28;;;;;;;1.63;1.40;;;;;;;;;;5051172;28;20841;-69
2021/08/05 11:01:01;;;;;;;1.27;1.17;;;;;;;;;;5051715;28;20477;-69
2021/08/05 11:03:38;;;;;;;3.50;1.40;;;;;;;;;;5052160;28;20415;-69
2021/08/05 11:06:05;;;;;;;1.83;1.67;;;;;;;;;;5051834;28;20415;-69
2021/08/05 11:08:31;;;;;;;1.63;1.53;;;;;;;;;;5055320;28;20411;-70
2021/08/05 11:11:16;;;;;;;1.20;1.10;;;;;;;;;;5055333;28;20489;-70
2021/08/05 11:13:42;;;;;;;2.03;1.60;;;;;;;;;;5055083;28;20453;-70
2021/08/05 11:16:08;;;;;;;2.53;1.30;;;;;;;;;;5055350;28;20419;-70
2021/08/05 11:18:34;;;;;;;1.50;1.40;;;;;;;;;;5055231;28;20814;-69
2021/08/05 11:21:00;;;;;;;1.73;1.63;;;;;;;;;;5055053;28;20466;-69
2021/08/05 11:23:34;;;;;;;1.33;1.23;;;;;;;;;;5055149;28;20940;-70
2021/08/05 11:26:00;;;;;;;1.33;1.23;;;;;;;;;;5054950;28;20434;-70
2021/08/05 11:28:33;;;;;;;1.27;1.03;;;;;;;;;;5054903;28;20411;-71
2021/08/05 11:30:59;;;;;;;1.90;1.30;;;;;;;;;;5054950;28;20837;-70
2021/08/05 11:33:40;;;;;;;1.30;1.20;;;;;;;;;;5054952;28;20537;-70
2021/08/05 11:36:14;;;;;;;2.50;1.97;;;;;;;;;;5054534;28;20934;-70
2021/08/05 11:38:56;;;;;;;1.57;1.40;;;;;;;;;;5054594;28;20434;-70
2021/08/05 11:41:41;;;;;;;1.47;1.20;;;;;;;;;;5053282;28;20512;-70
2021/08/05 11:44:26;;;;;;;1.23;1.10;;;;;;;;;;5053114;28;20405;-70
2021/08/05 11:47:01;;;;;;;1.73;1.07;;;;;;;;;;5054054;28;20568;-70
2021/08/05 11:49:33;;;;;;;1.43;1.33;;;;;;;;;;5054056;28;20421;-74
2021/08/05 11:51:59;;;;;;;3.57;1.20;;;;;;;;;;5054239;28;20419;-71
2021/08/05 11:54:25;;;;;;;2.03;1.43;;;;;;;;;;5053704;28;20415;-71
2021/08/05 11:56:58;;;;;;;1.50;1.40;;;;;;;;;;5053569;28;20922;-69
2021/08/05 11:59:37;;;;;;;1.57;0.97;;;;;;;;;;5053641;28;20943;-70
2021/08/05 12:02:11;;;;;;;1.70;1.37;;;;;;;;;;5053639;28;20525;-71
2021/08/05 12:04:37;;;;;;;4.73;1.23;;;;;;;;;;5053637;28;20410;-71
2021/08/05 12:07:18;;;;;;;1.83;1.10;;;;;;;;;;5053958;28;20812;-70
2021/08/05 12:09:48;;;;;;;1.33;1.23;;;;;;;;;;5053729;28;20419;-69
2021/08/05 12:12:14;;;;;;;1.77;1.67;;;;;;;;;;5052162;28;20431;-70
2021/08/05 12:14:46;;;;;;;1.30;1.20;;;;;;;;;;5053570;28;20415;-69
2021/08/05 12:17:12;;;;;;;1.77;1.40;;;;;;;;;;5053102;28;20415;-71
2021/08/05 12:19:46;;;;;;;2.50;1.40;;;;;;;;;;5053272;28;20517;-70
2021/08/05 12:22:12;;;;;;;2.60;1.10;;;;;;;;;;5053213;28;20469;-72
2021/08/05 12:24:43;;;;;;;1.43;1.33;;;;;;;;;;5052034;28;20480;-69
2021/08/05 12:27:09;;;;;;;1.57;1.27;;;;;;;;;;5052805;28;20415;-70
2021/08/05 12:29:35;;;;;;;1.20;1.10;;;;;;;;;;5053370;28;20461;-71
2021/08/05 12:32:07;;;;;;;1.77;1.57;;;;;;;;;;5050045;28;20418;-71
2021/08/05 12:34:33;;;;;;;1.20;0.97;;;;;;;;;;5052729;28;20447;-71
2021/08/05 12:37:11;;;;;;;1.07;1.00;;;;;;;;;;5052772;28;20423;-71
2021/08/05 12:39:37;;;;;;;1.20;1.10;;;;;;;;;;5052800;28;20484;-72
2021/08/05 12:42:03;;;;;;;2.77;1.30;;;;;;;;;;5052650;28;20467;-72
2021/08/05 12:44:32;;;;;;;1.47;1.30;;;;;;;;;;5052679;28;20894;-71
2021/08/05 12:46:58;;;;;;;1.57;0.80;;;;;;;;;;5052689;28;20437;-71
2021/08/05 12:49:29;;;;;;;1.60;1.50;;;;;;;;;;5052594;28;20407;-70
2021/08/05 12:51:58;;;;;;;1.73;1.40;;;;;;;;;;5052725;28;20494;-71
2021/08/05 12:54:25;;;;;;;2.70;1.30;;;;;;;;;;5052513;28;20417;-71
2021/08/05 12:56:55;;;;;;;1.53;1.33;;;;;;;;;;5052709;28;20554;-71
2021/08/05 12:59:25;;;;;;;1.60;1.50;;;;;;;;;;5051075;28;20426;-70
2021/08/05 13:02:07;;;;;;;1.13;1.03;;;;;;;;;;5052248;28;20796;-70
2021/08/05 13:04:35;;;;;;;1.17;1.13;;;;;;;;;;5052301;28;20772;-70
2021/08/05 13:07:02;;;;;;;2.10;1.43;;;;;;;;;;5052069;28;20506;-70
2021/08/05 13:09:28;;;;;;;1.33;1.23;;;;;;;;;;5052199;28;20490;-69
2021/08/05 13:11:55;;;;;;;2.43;1.80;;;;;;;;;;5052346;28;20451;-69
2021/08/05 13:14:32;;;;;;;1.63;1.53;;;;;;;;;;5052426;28;20423;-70
2021/08/05 13:17:02;;;;;;;1.37;1.27;;;;;;;;;;5052337;28;20468;-69
2021/08/05 13:19:28;;;;;;;1.70;1.20;;;;;;;;;;5052344;28;20885;-69
2021/08/05 13:21:56;;;;;;;2.80;1.80;;;;;;;;;;5052483;28;20473;-71
2021/08/05 13:24:28;;;;;;;1.67;1.40;;;;;;;;;;5050901;28;20411;-70
2021/08/05 13:26:55;;;;;;;2.60;1.37;;;;;;;;;;5051976;28;20735;-72
2021/08/05 13:29:35;;;;;;;1.33;1.23;;;;;;;;;;5051542;28;20438;-70
2021/08/05 13:32:01;;;;;;;0.93;0.90;;;;;;;;;;5052452;28;20426;-70
2021/08/05 13:34:27;;;;;;;1.20;1.03;;;;;;;;;;5051518;28;20454;-71
2021/08/05 13:36:54;;;;;;;1.40;1.30;;;;;;;;;;5051947;28;20490;-70
2021/08/05 13:39:39;;;;;;;1.23;1.13;;;;;;;;;;5051700;28;20453;-70
2021/08/05 13:42:06;;;;;;;2.70;1.03;;;;;;;;;;5051717;28;21041;-70
2021/08/05 13:44:32;;;;;;;1.00;0.90;;;;;;;;;;5051780;28;20447;-70
2021/08/05 13:46:58;;;;;;;1.13;1.03;;;;;;;;;;5050631;28;20473;-70
2021/08/05 13:49:24;;;;;;;2.20;1.03;;;;;;;;;;5051806;28;20411;-70
2021/08/05 13:51:50;;;;;;;1.80;0.90;;;;;;;;;;5051837;28;20908;-70
2021/08/05 13:54:16;;;;;;;2.53;2.10;;;;;;;;;;5050426;28;20418;-71
2021/08/05 13:59:45;;;;;;;5.87;1.77;;;;;;;;;;5051770;28;20458;-71
2021/08/05 14:02:11;;;;;;;2.00;1.00;;;;;;;;;;5051809;28;20462;-70
2021/08/05 14:04:37;;;;;;;3.43;1.40;;;;;;;;;;5051828;28;20418;-69
2021/08/05 14:07:04;;;;;;;1.80;1.47;;;;;;;;;;5051890;28;20423;-71
2021/08/05 14:09:30;;;;;;;2.53;1.17;;;;;;;;;;5051403;28;20434;-69
2021/08/05 14:15:00;;;;;;;4.73;1.37;;;;;;;;;;5051520;28;20457;-70
2021/08/05 14:17:26;;;;;;;2.20;1.67;;;;;;;;;;5051604;28;20414;-70
2021/08/05 14:19:52;;;;;;;1.70;1.30;;;;;;;;;;5051630;28;20416;-71
2021/08/05 14:22:18;;;;;;;1.40;1.30;;;;;;;;;;5050604;28;20592;-69
2021/08/05 14:24:44;;;;;;;1.80;1.23;;;;;;;;;;5051168;28;20548;-70
2021/08/05 14:27:10;;;;;;;1.53;1.43;;;;;;;;;;5051042;28;20419;-70
2021/08/05 14:29:36;;;;;;;1.33;1.23;;;;;;;;;;5051030;28;20411;-70
2021/08/05 14:32:03;;;;;;;1.20;1.10;;;;;;;;;;5051010;28;20506;-70
2021/08/05 14:34:29;;;;;;;1.27;1.17;;;;;;;;;;5050858;28;20937;-69
2021/08/05 14:36:55;;;;;;;1.33;1.20;;;;;;;;;;5050931;28;20425;-69
2021/08/05 14:39:21;;;;;;;1.30;1.10;;;;;;;;;;5049363;28;20921;-69
2021/08/05 14:44:50;;;;;;;1.00;0.90;;;;;;;;;;5054811;28;20453;-70
2021/08/05 14:47:16;;;;;;;2.97;1.47;;;;;;;;;;5053938;28;20399;-70
2021/08/05 14:49:42;;;;;;;6.73;1.30;;;;;;;;;;5054596;28;20494;-68
2021/08/05 14:52:08;;;;;;;1.67;1.40;;;;;;;;;;5054557;28;20433;-68
2021/08/05 14:54:34;;;;;;;0.87;0.87;;;;;;;;;;5054591;28;20941;-69
2021/08/05 15:00:05;;;;;;;2.03;1.30;;;;;;;;;;5054502;28;20662;-70
2021/08/05 15:02:31;;;;;;;1.30;1.20;;;;;;;;;;5054509;28;20516;-70
2021/08/05 15:04:58;;;;;;;1.37;1.27;;;;;;;;;;5054900;28;20430;-69
2021/08/05 15:07:24;;;;;;;6.50;1.40;;;;;;;;;;5054860;28;20557;-70
2021/08/05 15:09:50;;;;;;;1.20;1.10;;;;;;;;;;5054870;28;20901;-69
2021/08/05 15:15:20;;;;;;;1.37;0.83;;;;;;;;;;5054634;28;20456;-69
2021/08/05 15:17:46;;;;;;;1.40;0.97;;;;;;;;;;5054087;28;20753;-70
2021/08/05 15:20:12;;;;;;;1.83;1.73;;;;;;;;;;5054361;28;20415;-70
2021/08/05 15:22:38;;;;;;;1.37;1.27;;;;;;;;;;5054267;28;20493;-69
2021/08/05 15:25:04;;;;;;;1.07;0.97;;;;;;;;;;5054290;28;20530;-70
2021/08/05 15:27:30;;;;;;;1.97;1.10;;;;;;;;;;5054406;28;20537;-70
2021/08/05 15:29:56;;;;;;;1.00;0.70;;;;;;;;;;5054150;28;20497;-70
2021/08/05 15:32:22;;;;;;;3.60;1.57;;;;;;;;;;5054408;28;20422;-70
2021/08/05 15:34:48;;;;;;;1.80;1.03;;;;;;;;;;5053931;28;20466;-70
2021/08/05 15:37:14;;;;;;;2.70;0.97;;;;;;;;;;5054041;28;20503;-71
2021/08/05 15:39:40;;;;;;;1.67;1.03;;;;;;;;;;5053862;28;20415;-70
2021/08/05 15:45:10;;;;;;;3.10;1.30;;;;;;;;;;5053881;28;20973;-70
2021/08/05 15:47:36;;;;;;;1.10;1.00;;;;;;;;;;5053782;28;20404;-70
2021/08/05 15:50:02;;;;;;;1.93;1.00;;;;;;;;;;5053707;28;20861;-70
2021/08/05 15:52:28;;;;;;;1.30;1.13;;;;;;;;;;5052989;28;20424;-70
2021/08/05 15:54:54;;;;;;;1.47;1.37;;;;;;;;;;5053798;28;20801;-70
2021/08/05 16:00:23;;;;;;;1.40;1.30;;;;;;;;;;5053722;28;20433;-70
2021/08/05 16:02:49;;;;;;;2.20;1.10;;;;;;;;;;5052364;28;20478;-69
2021/08/05 16:05:19;;;;;;;1.13;1.03;;;;;;;;;;5053786;28;20414;-69
2021/08/05 16:07:45;;;;;;;1.37;1.17;;;;;;;;;;5053436;28;20411;-70
2021/08/05 16:10:11;;;;;;;2.77;1.77;;;;;;;;;;5053498;28;20419;-70
2021/08/05 16:15:41;;;;;;;3.47;1.27;;;;;;;;;;5053553;28;20465;-67
2021/08/05 16:18:07;;;;;;;2.83;1.87;;;;;;;;;;5052414;28;20426;-68
2021/08/05 16:20:32;;;;;;;1.70;1.57;;;;;;;;;;5053233;28;20994;-68
2021/08/05 16:22:58;;;;;;;1.80;1.50;;;;;;;;;;5053062;28;20451;-71
2021/08/05 16:25:24;;;;;;;2.43;1.30;;;;;;;;;;5053316;28;20477;-70
2021/08/05 16:27:50;;;;;;;1.40;1.30;;;;;;;;;;5052973;28;20971;-68
2021/08/05 16:30:16;;;;;;;2.93;1.70;;;;;;;;;;5052980;28;20415;-72
2021/08/05 16:32:44;;;;;;;5.60;1.50;;;;;;;;;;5051731;28;20461;-71
2021/08/05 16:35:10;;;;;;;1.37;1.27;;;;;;;;;;5053087;28;20474;-70
2021/08/05 16:37:36;;;;;;;1.70;1.50;;;;;;;;;;5053250;28;20453;-69
2021/08/05 16:40:02;;;;;;;1.83;1.40;;;;;;;;;;5052935;28;20478;-70